createdAt,value
2022-10-23T00:00:14.691Z,24.17
2022-10-23T00:02:42.201Z,25.80
2022-10-23T00:05:09.612Z,25.85
2022-10-23T00:07:36.758Z,29.35
2022-10-23T00:10:04.201Z,31.58
2022-10-23T00:12:31.323Z,35.38
2022-10-23T00:14:58.600Z,31.60
2022-10-23T00:17:25.717Z,28.15
2022-10-23T00:19:52.855Z,32.55
2022-10-23T00:22:20.151Z,26.55
2022-10-23T00:24:47.222Z,27.27
2022-10-23T00:27:14.322Z,33.33
2022-10-23T00:29:41.398Z,30.48
2022-10-23T00:32:08.490Z,29.70
2022-10-23T00:34:35.592Z,34.03
2022-10-23T00:37:03.095Z,31.55
2022-10-23T00:39:30.355Z,37.95
2022-10-23T00:41:57.482Z,33.05
2022-10-23T00:44:24.503Z,38.10
2022-10-23T00:46:51.680Z,37.70
2022-10-23T00:49:20.159Z,38.78
2022-10-23T00:51:49.394Z,33.20
2022-10-23T00:54:25.550Z,38.95
2022-10-23T00:56:57.590Z,33.92
2022-10-23T00:59:24.742Z,36.25
2022-10-23T01:01:52.041Z,40.03
2022-10-23T01:04:19.436Z,36.20
2022-10-23T01:06:54.833Z,35.75
2022-10-23T01:09:40.792Z,32.35
2022-10-23T01:12:07.858Z,32.22
2022-10-23T01:14:48.777Z,35.10
2022-10-23T01:17:22.617Z,36.33
2022-10-23T01:19:56.758Z,35.00
2022-10-23T01:22:33.967Z,40.92
2022-10-23T01:25:19.237Z,31.45
2022-10-23T01:27:49.859Z,36.30
2022-10-23T01:30:17.744Z,29.63
2022-10-23T01:32:48.235Z,35.22
2022-10-23T01:35:23.423Z,34.47
2022-10-23T01:37:54.415Z,37.70
2022-10-23T01:40:44.861Z,36.90
2022-10-23T01:43:35.267Z,30.13
2022-10-23T01:46:07.850Z,32.50
2022-10-23T01:48:35.812Z,35.13
2022-10-23T01:51:05.531Z,34.95
2022-10-23T01:53:34.806Z,32.13
2022-10-23T01:56:03.404Z,34.58
2022-10-23T01:58:32.091Z,31.25
2022-10-23T02:01:03.845Z,30.67
2022-10-23T02:03:32.187Z,31.50
2022-10-23T02:05:59.466Z,30.83
2022-10-23T02:08:26.570Z,29.30
2022-10-23T02:10:57.144Z,25.98
2022-10-23T02:13:35.808Z,27.57
2022-10-23T02:16:26.268Z,29.02
2022-10-23T02:18:56.566Z,29.23
2022-10-23T02:21:29.972Z,24.52
2022-10-23T02:24:10.023Z,29.00
2022-10-23T02:26:40.062Z,26.17
2022-10-23T02:29:09.978Z,27.30
2022-10-23T02:31:37.110Z,24.08
2022-10-23T02:34:04.420Z,28.00
2022-10-23T02:36:31.526Z,24.85
2022-10-23T02:38:58.947Z,27.48
2022-10-23T02:41:26.057Z,29.02
2022-10-23T02:44:11.781Z,22.13
2022-10-23T02:47:05.074Z,22.08
2022-10-23T02:49:36.113Z,24.80
2022-10-23T02:52:07.659Z,24.73
2022-10-23T02:54:44.246Z,26.50
2022-10-23T02:57:17.717Z,24.17
2022-10-23T02:59:46.226Z,26.83
2022-10-23T03:02:22.294Z,25.00
2022-10-23T03:04:49.820Z,24.88
2022-10-23T03:07:19.498Z,25.73
2022-10-23T03:09:46.644Z,27.08
2022-10-23T03:12:13.770Z,23.38
2022-10-23T03:14:40.922Z,28.38
2022-10-23T03:17:08.024Z,32.75
2022-10-23T03:19:35.155Z,31.88
2022-10-23T03:22:02.230Z,31.33
2022-10-23T03:24:29.305Z,28.00
2022-10-23T03:26:56.366Z,28.30
2022-10-23T03:29:23.426Z,29.73
2022-10-23T03:31:50.495Z,29.88
2022-10-23T03:34:19.281Z,32.60
2022-10-23T03:36:46.356Z,31.40
2022-10-23T03:39:13.588Z,28.25
2022-10-23T03:41:40.652Z,30.60
2022-10-23T03:44:07.707Z,35.80
2022-10-23T03:46:34.792Z,30.70
2022-10-23T03:49:01.838Z,29.08
2022-10-23T03:51:29.029Z,31.92
2022-10-23T03:53:56.094Z,28.00
2022-10-23T03:56:23.159Z,29.63
2022-10-23T03:58:52.337Z,25.02
2022-10-23T04:01:19.498Z,25.17
2022-10-23T04:03:46.583Z,30.52
2022-10-23T04:06:13.708Z,25.60
2022-10-23T04:08:40.870Z,28.30
2022-10-23T04:11:07.934Z,30.70
2022-10-23T04:13:34.990Z,28.58
2022-10-23T04:16:02.078Z,27.33
2022-10-23T04:18:29.153Z,26.52
2022-10-23T04:20:56.937Z,23.30
2022-10-23T04:23:23.989Z,25.85
2022-10-23T04:25:51.048Z,30.63
2022-10-23T04:28:18.174Z,28.75
2022-10-23T04:30:45.265Z,27.27
2022-10-23T04:33:12.346Z,37.80
2022-10-23T04:35:39.412Z,29.35
2022-10-23T04:38:06.460Z,33.60
2022-10-23T04:40:33.578Z,32.60
2022-10-23T04:43:00.703Z,29.10
2022-10-23T04:45:27.778Z,29.45
2022-10-23T04:47:56.153Z,37.38
2022-10-23T04:50:23.512Z,38.42
2022-10-23T04:52:54.631Z,38.38
2022-10-23T04:55:21.871Z,37.80
2022-10-23T04:57:49.009Z,39.97
2022-10-23T05:00:16.436Z,40.80
2022-10-23T05:02:43.800Z,48.17
2022-10-23T05:05:11.415Z,43.83
2022-10-23T05:07:39.032Z,41.90
2022-10-23T05:10:06.739Z,46.60
2022-10-23T05:12:33.846Z,34.22
2022-10-23T05:15:01.231Z,46.97
2022-10-23T05:17:30.629Z,48.38
2022-10-23T05:19:58.438Z,45.10
2022-10-23T05:22:27.535Z,39.50
2022-10-23T05:24:55.265Z,43.88
2022-10-23T05:27:22.374Z,39.67
2022-10-23T05:29:49.463Z,38.30
2022-10-23T05:32:17.499Z,41.85
2022-10-23T05:34:44.732Z,36.53
2022-10-23T05:37:13.510Z,41.20
2022-10-23T05:39:40.574Z,35.83
2022-10-23T05:42:07.625Z,37.95
2022-10-23T05:44:35.358Z,36.38
2022-10-23T05:47:02.485Z,47.88
2022-10-23T05:49:29.530Z,36.00
2022-10-23T05:51:56.628Z,41.97
2022-10-23T05:54:23.769Z,33.97
2022-10-23T05:56:51.799Z,34.80
2022-10-23T05:59:22.001Z,32.13
2022-10-23T06:01:50.294Z,29.30
2022-10-23T06:04:17.511Z,33.67
2022-10-23T06:06:46.638Z,30.27
2022-10-23T06:09:13.989Z,34.42
2022-10-23T06:11:41.641Z,31.20
2022-10-23T06:14:08.837Z,28.58
2022-10-23T06:16:35.902Z,37.25
2022-10-23T06:19:03.465Z,32.17
2022-10-23T06:21:30.578Z,31.55
2022-10-23T06:23:58.424Z,30.88
2022-10-23T06:26:25.587Z,31.63
2022-10-23T06:28:52.779Z,31.45
2022-10-23T06:31:20.458Z,26.63
2022-10-23T06:33:47.545Z,28.55
2022-10-23T06:36:14.662Z,27.85
2022-10-23T06:38:41.753Z,36.28
2022-10-23T06:41:12.671Z,27.38
2022-10-23T06:43:39.759Z,25.85
2022-10-23T06:46:06.851Z,23.30
2022-10-23T06:48:33.918Z,25.13
2022-10-23T06:51:04.938Z,26.23
2022-10-23T06:53:32.044Z,24.67
2022-10-23T06:56:03.664Z,25.00
2022-10-23T06:58:30.851Z,23.50
2022-10-23T07:01:00.955Z,29.48
2022-10-23T07:03:28.663Z,27.75
2022-10-23T07:05:55.815Z,23.92
2022-10-23T07:08:23.829Z,27.42
2022-10-23T07:10:50.935Z,24.10
2022-10-23T07:13:18.018Z,31.40
2022-10-23T07:15:45.247Z,32.65
2022-10-23T07:18:14.610Z,26.27
2022-10-23T07:20:42.361Z,24.20
2022-10-23T07:23:09.870Z,31.13
2022-10-23T07:25:36.964Z,26.38
2022-10-23T07:28:06.881Z,26.23
2022-10-23T07:30:34.014Z,32.85
2022-10-23T07:33:01.129Z,24.35
2022-10-23T07:35:28.218Z,30.00
2022-10-23T07:37:55.300Z,28.17
2022-10-23T07:40:23.021Z,26.98
2022-10-23T07:42:50.120Z,25.17
2022-10-23T07:45:17.294Z,28.38
2022-10-23T07:47:44.797Z,30.65
2022-10-23T07:50:12.222Z,24.58
2022-10-23T07:52:39.302Z,24.80
2022-10-23T07:55:06.457Z,28.05
2022-10-23T07:57:33.529Z,26.85
2022-10-23T08:00:00.609Z,25.67
2022-10-23T08:02:27.829Z,24.05
2022-10-23T08:04:54.985Z,27.63
2022-10-23T08:07:22.033Z,22.80
2022-10-23T08:09:49.137Z,31.98
2022-10-23T08:12:16.591Z,26.65
2022-10-23T08:14:43.792Z,25.20
2022-10-23T08:17:11.356Z,19.55
2022-10-23T08:19:38.511Z,19.25
2022-10-23T08:22:06.113Z,16.90
2022-10-23T08:24:33.295Z,17.65
2022-10-23T08:27:00.385Z,21.45
2022-10-23T08:29:27.490Z,15.85
2022-10-23T08:31:58.249Z,15.55
2022-10-23T08:34:25.451Z,17.83
2022-10-23T08:36:52.533Z,20.67
2022-10-23T08:39:19.652Z,16.42
2022-10-23T08:41:53.352Z,19.25
2022-10-23T08:44:23.968Z,16.40
2022-10-23T08:46:54.167Z,18.90
2022-10-23T08:49:40.503Z,17.92
2022-10-23T08:52:17.319Z,19.55
2022-10-23T08:54:53.690Z,16.55
2022-10-23T08:57:22.753Z,16.30
2022-10-23T08:59:52.128Z,16.48
2022-10-23T09:02:19.261Z,14.57
2022-10-23T09:04:48.289Z,16.92
2022-10-23T09:07:20.757Z,19.10
2022-10-23T09:10:06.647Z,17.38
2022-10-23T09:12:33.795Z,17.48
2022-10-23T09:15:13.196Z,16.45
2022-10-23T09:17:42.036Z,21.50
2022-10-23T09:20:35.510Z,20.20
2022-10-23T09:23:04.964Z,17.13
2022-10-23T09:25:35.643Z,18.25
2022-10-23T09:28:05.288Z,17.10
2022-10-23T09:30:35.185Z,15.68
2022-10-23T09:33:14.207Z,18.17
2022-10-23T09:35:51.980Z,19.40
2022-10-23T09:38:26.064Z,13.00
2022-10-23T09:40:53.574Z,17.20
2022-10-23T09:43:27.342Z,15.45
2022-10-23T09:45:58.268Z,18.00
2022-10-23T09:48:25.423Z,18.70
2022-10-23T09:50:57.204Z,19.00
2022-10-23T09:53:32.455Z,15.45
2022-10-23T09:56:01.907Z,12.25
2022-10-23T09:58:37.446Z,12.77
2022-10-23T10:01:06.456Z,18.13
2022-10-23T10:03:33.647Z,10.15
2022-10-23T10:06:02.746Z,17.30
2022-10-23T10:08:39.040Z,16.50
2022-10-23T10:11:12.832Z,11.50
2022-10-23T10:13:48.275Z,14.07
2022-10-23T10:16:34.372Z,10.75
2022-10-23T10:19:01.464Z,10.45
2022-10-23T10:21:29.217Z,12.63
2022-10-23T10:24:05.309Z,12.90
2022-10-23T10:26:51.472Z,14.48
2022-10-23T10:29:25.634Z,11.38
2022-10-23T10:32:06.577Z,12.45
2022-10-23T10:34:39.622Z,10.90
2022-10-23T10:37:20.614Z,7.50
2022-10-23T10:39:56.781Z,8.55
2022-10-23T10:42:42.835Z,8.43
2022-10-23T10:45:28.261Z,7.43
2022-10-23T10:48:12.090Z,9.88
2022-10-23T10:51:00.054Z,7.88
2022-10-23T10:53:52.533Z,8.20
2022-10-23T10:56:20.454Z,12.50
2022-10-23T10:58:59.110Z,8.25
2022-10-23T11:01:29.177Z,7.97
2022-10-23T11:04:16.616Z,9.15
2022-10-23T11:06:44.907Z,6.75
2022-10-23T11:09:20.760Z,4.70
2022-10-23T11:11:48.693Z,5.07
2022-10-23T11:14:20.807Z,4.05
2022-10-23T11:16:50.418Z,6.13
2022-10-23T11:19:20.980Z,4.22
2022-10-23T11:21:52.805Z,4.30
2022-10-23T11:24:44.119Z,4.85
2022-10-23T11:27:16.940Z,6.75
2022-10-23T11:30:09.909Z,6.63
2022-10-23T11:32:55.631Z,7.00
2022-10-23T11:35:22.719Z,5.50
2022-10-23T11:38:10.042Z,6.43
2022-10-23T11:40:37.189Z,6.70
2022-10-23T11:43:04.324Z,7.47
2022-10-23T11:45:39.441Z,5.57
2022-10-23T11:48:26.800Z,8.38
2022-10-23T11:50:55.531Z,7.47
2022-10-23T11:53:27.249Z,7.93
2022-10-23T11:56:19.585Z,7.70
2022-10-23T11:58:46.818Z,5.38
2022-10-23T12:01:25.216Z,7.18
2022-10-23T12:04:04.230Z,8.35
2022-10-23T12:06:40.058Z,6.38
2022-10-23T12:09:08.985Z,12.00
2022-10-23T12:11:47.591Z,6.40
2022-10-23T12:14:34.925Z,9.20
2022-10-23T12:17:02.297Z,6.50
2022-10-23T12:19:30.364Z,8.38
2022-10-23T12:22:02.226Z,7.43
2022-10-23T12:24:34.748Z,7.85
2022-10-23T12:27:06.228Z,7.80
2022-10-23T12:29:53.913Z,10.18
2022-10-23T12:32:27.099Z,6.18
2022-10-23T12:35:09.477Z,9.07
2022-10-23T12:37:52.423Z,13.05
2022-10-23T12:40:19.533Z,6.90
2022-10-23T12:42:54.641Z,7.75
2022-10-23T12:45:25.659Z,7.25
2022-10-23T12:47:53.056Z,6.75
2022-10-23T12:50:25.476Z,5.80
2022-10-23T12:52:58.460Z,5.72
2022-10-23T12:55:27.492Z,7.35
2022-10-23T12:57:56.056Z,5.30
2022-10-23T13:00:24.034Z,7.03
2022-10-23T13:03:01.927Z,7.00
2022-10-23T13:05:29.584Z,5.63
2022-10-23T13:07:57.912Z,8.60
2022-10-23T13:10:25.368Z,8.32
2022-10-23T13:13:04.602Z,8.15
2022-10-23T13:15:42.202Z,9.30
2022-10-23T13:18:10.282Z,6.25
2022-10-23T13:21:03.609Z,9.48
2022-10-23T13:23:34.737Z,8.80
2022-10-23T13:26:02.270Z,8.05
2022-10-23T13:28:33.456Z,10.48
2022-10-23T13:33:32.229Z,7.22
2022-10-23T13:36:19.284Z,9.38
2022-10-23T13:38:47.798Z,7.72
2022-10-23T13:41:16.707Z,7.78
2022-10-23T13:43:44.428Z,7.05
2022-10-23T13:46:15.278Z,8.20
2022-10-23T13:48:42.735Z,10.25
2022-10-23T13:51:14.343Z,8.68
2022-10-23T13:53:41.697Z,7.30
2022-10-23T13:56:11.200Z,9.77
2022-10-23T13:58:38.735Z,8.90
2022-10-23T14:01:06.609Z,8.50
2022-10-23T14:03:33.821Z,9.32
2022-10-23T14:06:01.312Z,11.73
2022-10-23T14:08:28.400Z,10.35
2022-10-23T14:10:55.485Z,9.63
2022-10-23T14:13:22.586Z,10.90
2022-10-23T14:15:56.219Z,9.52
2022-10-23T14:18:23.340Z,9.85
2022-10-23T14:20:50.615Z,10.40
2022-10-23T14:23:18.926Z,15.82
2022-10-23T14:25:46.043Z,15.07
2022-10-23T14:28:13.179Z,12.23
2022-10-23T14:30:40.244Z,11.85
2022-10-23T14:33:07.381Z,9.02
2022-10-23T14:35:34.540Z,8.25
2022-10-23T14:38:01.577Z,9.18
2022-10-23T14:40:28.643Z,12.23
2022-10-23T14:42:55.730Z,8.82
2022-10-23T14:45:22.781Z,10.02
2022-10-23T14:47:50.055Z,13.82
2022-10-23T14:50:17.226Z,13.18
2022-10-23T14:52:44.398Z,12.13
2022-10-23T14:55:11.471Z,13.90
2022-10-23T14:57:38.589Z,12.05
2022-10-23T15:00:06.905Z,8.90
2022-10-23T15:02:34.022Z,14.15
2022-10-23T15:05:01.125Z,12.32
2022-10-23T15:07:28.186Z,18.13
2022-10-23T15:09:55.494Z,16.75
2022-10-23T15:12:22.812Z,18.85
2022-10-23T15:14:49.875Z,21.23
2022-10-23T15:17:16.974Z,20.67
2022-10-23T15:19:44.057Z,28.95
2022-10-23T15:22:11.133Z,28.15
2022-10-23T15:24:38.329Z,29.27
2022-10-23T15:27:05.498Z,67.10
2022-10-23T15:29:32.651Z,79.95
2022-10-23T15:32:00.100Z,38.25
2022-10-23T15:34:28.209Z,37.45
2022-10-23T15:36:56.077Z,27.73
2022-10-23T15:39:24.164Z,21.63
2022-10-23T15:41:52.588Z,24.38
2022-10-23T15:44:21.745Z,20.40
2022-10-23T15:46:48.892Z,18.75
2022-10-23T15:49:16.435Z,16.83
2022-10-23T15:51:43.875Z,17.25
2022-10-23T15:54:16.298Z,14.60
2022-10-23T15:56:43.864Z,15.95
2022-10-23T15:59:10.924Z,15.25
2022-10-23T16:01:38.120Z,14.80
2022-10-23T16:04:05.277Z,18.10
2022-10-23T16:06:32.333Z,21.50
2022-10-23T16:08:59.400Z,18.15
2022-10-23T16:11:30.949Z,15.75
2022-10-23T16:13:58.692Z,20.42
2022-10-23T16:16:26.291Z,20.48
2022-10-23T16:18:53.389Z,24.17
2022-10-23T16:21:22.455Z,19.65
2022-10-23T16:23:50.146Z,19.98
2022-10-23T16:26:17.581Z,22.17
2022-10-23T16:28:46.304Z,15.30
2022-10-23T16:31:19.367Z,15.38
2022-10-23T16:33:48.317Z,20.25
2022-10-23T16:36:15.765Z,22.05
2022-10-23T16:38:42.841Z,21.65
2022-10-23T16:41:09.924Z,14.70
2022-10-23T16:43:37.065Z,13.23
2022-10-23T16:46:09.109Z,13.90
2022-10-23T16:48:36.244Z,17.00
2022-10-23T16:51:14.214Z,11.57
2022-10-23T16:53:42.010Z,18.42
2022-10-23T16:56:10.454Z,17.73
2022-10-23T16:58:43.054Z,30.52
2022-10-23T17:01:11.847Z,31.77
2022-10-23T17:03:40.420Z,23.92
2022-10-23T17:06:08.844Z,22.58
2022-10-23T17:08:38.289Z,27.92
2022-10-23T17:11:05.627Z,23.45
2022-10-23T17:13:32.861Z,25.92
2022-10-23T17:16:04.520Z,25.38
2022-10-23T17:18:31.611Z,27.80
2022-10-23T17:20:59.665Z,31.58
2022-10-23T17:23:27.008Z,31.05
2022-10-23T17:25:54.605Z,44.35
2022-10-23T17:28:21.819Z,32.38
2022-10-23T17:30:48.984Z,40.53
2022-10-23T17:33:16.207Z,31.33
2022-10-23T17:35:45.142Z,25.33
2022-10-23T17:38:17.880Z,25.73
2022-10-23T17:43:17.708Z,20.35
2022-10-23T17:45:45.273Z,37.95
2022-10-23T17:48:13.471Z,37.33
2022-10-23T17:50:41.178Z,37.17
2022-10-23T17:53:08.487Z,25.48
2022-10-23T17:55:39.504Z,24.13
2022-10-23T17:58:09.511Z,21.88
2022-10-23T18:00:37.762Z,31.83
2022-10-23T18:03:05.061Z,22.92
2022-10-23T18:05:33.088Z,30.58
2022-10-23T18:08:00.650Z,24.27
2022-10-23T18:10:28.201Z,24.95
2022-10-23T18:12:55.295Z,29.38
2022-10-23T18:15:22.619Z,20.33
2022-10-23T18:17:49.748Z,26.85
2022-10-23T18:20:16.851Z,28.98
2022-10-23T18:22:44.278Z,28.20
2022-10-23T18:25:11.555Z,29.92
2022-10-23T18:27:41.367Z,35.90
2022-10-23T18:30:08.831Z,29.30
2022-10-23T18:32:35.926Z,36.03
2022-10-23T18:35:03.090Z,35.22
2022-10-23T18:37:31.760Z,33.88
2022-10-23T18:40:00.383Z,35.53
2022-10-23T18:42:27.468Z,28.27
2022-10-23T18:44:54.549Z,33.50
2022-10-23T18:47:21.667Z,28.80
2022-10-23T18:49:48.726Z,32.85
2022-10-23T18:52:15.836Z,29.60
2022-10-23T18:54:43.066Z,30.30
2022-10-23T18:57:10.139Z,34.97
2022-10-23T18:59:37.288Z,29.85
2022-10-23T19:02:04.519Z,33.10
2022-10-23T19:04:34.184Z,29.63
2022-10-23T19:07:03.483Z,29.30
2022-10-23T19:09:30.654Z,26.50
2022-10-23T19:11:59.084Z,29.52
2022-10-23T19:14:28.670Z,41.35
2022-10-23T19:17:02.060Z,36.78
2022-10-23T19:19:31.134Z,37.53
2022-10-23T19:21:58.683Z,38.55
2022-10-23T19:24:29.514Z,43.08
2022-10-23T19:26:57.458Z,34.47
2022-10-23T19:29:26.676Z,33.67
2022-10-23T19:31:54.160Z,33.25
2022-10-23T19:34:22.825Z,37.42
2022-10-23T19:36:50.683Z,39.10
2022-10-23T19:39:18.747Z,40.97
2022-10-23T19:41:45.908Z,46.72
2022-10-23T19:44:14.083Z,63.08
2022-10-23T19:46:41.161Z,40.55
2022-10-23T19:49:08.975Z,40.70
2022-10-23T19:51:36.087Z,51.97
2022-10-23T19:54:03.154Z,42.42
2022-10-23T19:56:30.231Z,79.35
2022-10-23T19:58:57.307Z,334.58
2022-10-23T20:01:25.530Z,159.23
2022-10-23T20:03:53.062Z,47.95
2022-10-23T20:06:22.506Z,67.35
2022-10-23T20:08:49.587Z,73.05
2022-10-23T20:11:21.801Z,81.88
2022-10-23T20:13:49.628Z,61.30
2022-10-23T20:16:24.147Z,71.38
2022-10-23T20:18:51.566Z,72.28
2022-10-23T20:21:19.042Z,58.08
2022-10-23T20:23:46.134Z,57.03
2022-10-23T20:26:15.972Z,54.78
2022-10-23T20:28:48.410Z,53.20
2022-10-23T20:31:16.804Z,56.25
2022-10-23T20:33:44.047Z,54.92
2022-10-23T20:36:21.333Z,51.47
2022-10-23T20:38:48.799Z,54.78
2022-10-23T20:41:15.877Z,47.78
2022-10-23T20:43:42.978Z,59.22
2022-10-23T20:46:10.754Z,53.38
2022-10-23T20:48:38.526Z,52.47
2022-10-23T20:51:15.696Z,50.65
2022-10-23T20:53:43.580Z,58.08
2022-10-23T20:56:13.451Z,56.75
2022-10-23T20:58:40.595Z,54.15
2022-10-23T21:01:12.149Z,70.78
2022-10-23T21:03:39.587Z,140.02
2022-10-23T21:06:07.943Z,96.63
2022-10-23T21:08:35.057Z,59.67
2022-10-23T21:11:02.296Z,56.65
2022-10-23T21:13:29.525Z,47.05
2022-10-23T21:15:56.934Z,50.72
2022-10-23T21:18:34.143Z,46.67
2022-10-23T21:21:12.145Z,56.78
2022-10-23T21:23:39.397Z,44.25
2022-10-23T21:26:07.718Z,51.33
2022-10-23T21:28:35.237Z,45.65
2022-10-23T21:31:03.592Z,52.58
2022-10-23T21:33:30.725Z,55.55
2022-10-23T21:36:04.834Z,50.85
2022-10-23T21:38:40.203Z,59.47
2022-10-23T21:41:07.880Z,66.47
2022-10-23T21:43:35.012Z,90.03
2022-10-23T21:46:05.772Z,176.75
2022-10-23T21:48:33.072Z,100.88
2022-10-23T21:51:00.437Z,62.55
2022-10-23T21:53:27.622Z,80.28
2022-10-23T21:55:55.417Z,85.03
2022-10-23T21:58:22.570Z,94.63
2022-10-23T22:00:49.652Z,60.47
2022-10-23T22:03:16.949Z,66.40
2022-10-23T22:05:44.048Z,73.85
2022-10-23T22:08:11.139Z,88.32
2022-10-23T22:10:38.276Z,80.03
2022-10-23T22:13:05.347Z,77.32
2022-10-23T22:15:32.443Z,81.00
2022-10-23T22:18:00.400Z,88.50
2022-10-23T22:20:27.497Z,102.85
2022-10-23T22:22:54.581Z,103.40
2022-10-23T22:25:21.646Z,116.63
2022-10-23T22:27:48.802Z,129.88
2022-10-23T22:30:15.982Z,118.28
2022-10-23T22:32:43.693Z,92.55
2022-10-23T22:35:10.958Z,149.35
2022-10-23T22:37:38.031Z,153.00
2022-10-23T22:40:05.366Z,126.45
2022-10-23T22:42:32.544Z,121.50
2022-10-23T22:44:59.619Z,116.82
2022-10-23T22:47:26.693Z,106.38
2022-10-23T22:49:53.744Z,97.15
2022-10-23T22:52:21.177Z,95.57
2022-10-23T22:54:49.013Z,67.43
2022-10-23T22:57:16.147Z,81.20
2022-10-23T22:59:43.343Z,68.63
2022-10-23T23:02:10.505Z,108.05
2022-10-23T23:04:38.989Z,90.20
2022-10-23T23:07:07.688Z,97.93
2022-10-23T23:09:36.750Z,70.80
2022-10-23T23:12:03.913Z,87.00
2022-10-23T23:14:30.986Z,105.63
2022-10-23T23:16:58.089Z,84.00
2022-10-23T23:19:26.520Z,83.72
2022-10-23T23:21:57.515Z,85.57
2022-10-23T23:24:25.293Z,93.90
2022-10-23T23:26:52.458Z,91.10
2022-10-23T23:29:19.910Z,86.20
2022-10-23T23:31:47.088Z,79.22
2022-10-23T23:34:14.216Z,102.85
2022-10-23T23:36:41.613Z,95.97
2022-10-23T23:39:08.687Z,85.32
2022-10-23T23:41:35.747Z,99.47
2022-10-23T23:44:02.826Z,84.30
2022-10-23T23:46:29.910Z,82.80
2022-10-23T23:48:56.965Z,81.60
2022-10-23T23:51:24.974Z,86.93
2022-10-23T23:53:52.353Z,85.07
2022-10-23T23:56:19.739Z,75.65
2022-10-23T23:58:46.864Z,85.78
